sensor_id;sensor_type;location;lat;lon;timestamp;pressure;altitude;pressure_sealevel;temperature;humidity
49194;BME280;35029;50.804;12.866;2023-07-13T00:00:41;97455.28;;;19.99;76.89
49194;BME280;35029;50.804;12.866;2023-07-13T00:03:07;97453.94;;;19.91;80.24
49194;BME280;35029;50.804;12.866;2023-07-13T00:05:33;97443.94;;;19.81;78.09
49194;BME280;35029;50.804;12.866;2023-07-13T00:07:58;97439.63;;;19.80;79.45
49194;BME280;35029;50.804;12.866;2023-07-13T00:10:24;97440.09;;;19.67;79.33
49194;BME280;35029;50.804;12.866;2023-07-13T00:12:50;97439.19;;;19.51;80.37
49194;BME280;35029;50.804;12.866;2023-07-13T00:15:24;97444.28;;;19.47;83.60
49194;BME280;35029;50.804;12.866;2023-07-13T00:17:54;97438.88;;;19.42;82.47
49194;BME280;35029;50.804;12.866;2023-07-13T00:20:24;97455.03;;;19.47;82.21
49194;BME280;35029;50.804;12.866;2023-07-13T00:22:51;97454.22;;;19.41;82.94
49194;BME280;35029;50.804;12.866;2023-07-13T00:25:20;97453.94;;;19.43;82.44
49194;BME280;35029;50.804;12.866;2023-07-13T00:27:47;97442.34;;;19.37;82.04
49194;BME280;35029;50.804;12.866;2023-07-13T00:30:14;97450.25;;;19.17;83.43
49194;BME280;35029;50.804;12.866;2023-07-13T00:32:40;97467.44;;;19.11;82.63
49194;BME280;35029;50.804;12.866;2023-07-13T00:35:06;97469.28;;;19.05;82.16
49194;BME280;35029;50.804;12.866;2023-07-13T00:37:32;97469.53;;;18.76;83.45
49194;BME280;35029;50.804;12.866;2023-07-13T00:39:58;97487.03;;;18.84;84.63
49194;BME280;35029;50.804;12.866;2023-07-13T00:42:24;97481.63;;;18.79;85.85
49194;BME280;35029;50.804;12.866;2023-07-13T00:47:41;97484.09;;;18.85;84.36
49194;BME280;35029;50.804;12.866;2023-07-13T00:50:09;97479.13;;;18.94;84.65
49194;BME280;35029;50.804;12.866;2023-07-13T00:52:45;97464.84;;;18.94;84.41
49194;BME280;35029;50.804;12.866;2023-07-13T00:55:13;97454.13;;;18.94;85.04
49194;BME280;35029;50.804;12.866;2023-07-13T00:57:40;97462.34;;;18.87;84.75
49194;BME280;35029;50.804;12.866;2023-07-13T01:00:07;97446.25;;;18.87;84.80
49194;BME280;35029;50.804;12.866;2023-07-13T01:02:37;97436.84;;;18.84;85.50
49194;BME280;35029;50.804;12.866;2023-07-13T01:05:11;97423.16;;;18.86;85.54
49194;BME280;35029;50.804;12.866;2023-07-13T01:07:39;97438.88;;;18.99;85.59
49194;BME280;35029;50.804;12.866;2023-07-13T01:10:06;97430.56;;;19.01;85.05
49194;BME280;35029;50.804;12.866;2023-07-13T01:12:32;97440.69;;;18.94;85.01
49194;BME280;35029;50.804;12.866;2023-07-13T01:14:58;97439.84;;;18.88;85.59
49194;BME280;35029;50.804;12.866;2023-07-13T01:17:25;97444.06;;;18.84;85.33
49194;BME280;35029;50.804;12.866;2023-07-13T01:19:52;97425.47;;;18.72;85.88
49194;BME280;35029;50.804;12.866;2023-07-13T01:22:18;97442.44;;;18.78;85.70
49194;BME280;35029;50.804;12.866;2023-07-13T01:24:46;97452.59;;;18.75;86.27
49194;BME280;35029;50.804;12.866;2023-07-13T01:27:17;97448.50;;;18.68;86.73
49194;BME280;35029;50.804;12.866;2023-07-13T01:29:45;97449.84;;;18.65;86.67
49194;BME280;35029;50.804;12.866;2023-07-13T01:32:18;97453.16;;;18.78;86.63
49194;BME280;35029;50.804;12.866;2023-07-13T01:34:53;97449.59;;;18.67;86.87
49194;BME280;35029;50.804;12.866;2023-07-13T01:37:23;97445.22;;;18.61;87.69
49194;BME280;35029;50.804;12.866;2023-07-13T01:39:50;97441.03;;;18.42;88.11
49194;BME280;35029;50.804;12.866;2023-07-13T01:42:17;97442.94;;;18.47;88.86
49194;BME280;35029;50.804;12.866;2023-07-13T01:44:42;97438.75;;;18.56;88.14
49194;BME280;35029;50.804;12.866;2023-07-13T01:47:09;97448.75;;;18.61;88.37
49194;BME280;35029;50.804;12.866;2023-07-13T01:49:35;97440.44;;;18.63;88.52
49194;BME280;35029;50.804;12.866;2023-07-13T01:52:01;97450.66;;;18.66;88.53
49194;BME280;35029;50.804;12.866;2023-07-13T01:54:27;97454.09;;;18.61;89.04
49194;BME280;35029;50.804;12.866;2023-07-13T01:56:52;97447.00;;;18.50;89.21
49194;BME280;35029;50.804;12.866;2023-07-13T01:59:18;97450.53;;;18.55;88.93
49194;BME280;35029;50.804;12.866;2023-07-13T02:01:43;97458.09;;;18.58;89.77
49194;BME280;35029;50.804;12.866;2023-07-13T02:04:09;97464.53;;;18.57;89.52
49194;BME280;35029;50.804;12.866;2023-07-13T02:06:36;97465.13;;;18.65;89.27
49194;BME280;35029;50.804;12.866;2023-07-13T02:09:01;97460.88;;;18.69;88.98
49194;BME280;35029;50.804;12.866;2023-07-13T02:11:27;97460.59;;;18.65;88.77
49194;BME280;35029;50.804;12.866;2023-07-13T02:14:01;97461.50;;;18.76;88.42
49194;BME280;35029;50.804;12.866;2023-07-13T02:16:28;97449.59;;;18.67;88.56
49194;BME280;35029;50.804;12.866;2023-07-13T02:18:54;97442.84;;;18.64;88.68
49194;BME280;35029;50.804;12.866;2023-07-13T02:21:21;97439.00;;;18.55;87.99
49194;BME280;35029;50.804;12.866;2023-07-13T02:23:47;97440.53;;;18.46;88.79
49194;BME280;35029;50.804;12.866;2023-07-13T02:26:15;97444.25;;;18.45;89.27
49194;BME280;35029;50.804;12.866;2023-07-13T02:28:41;97444.38;;;18.55;88.93
49194;BME280;35029;50.804;12.866;2023-07-13T02:31:08;97443.25;;;18.51;89.52
49194;BME280;35029;50.804;12.866;2023-07-13T02:33:34;97451.56;;;18.49;89.09
49194;BME280;35029;50.804;12.866;2023-07-13T02:36:00;97443.19;;;18.46;90.16
49194;BME280;35029;50.804;12.866;2023-07-13T02:38:25;97448.56;;;18.46;89.76
49194;BME280;35029;50.804;12.866;2023-07-13T02:40:51;97451.56;;;18.49;89.58
49194;BME280;35029;50.804;12.866;2023-07-13T02:43:19;97460.47;;;18.55;89.16
49194;BME280;35029;50.804;12.866;2023-07-13T02:45:46;97458.75;;;18.44;89.83
49194;BME280;35029;50.804;12.866;2023-07-13T02:48:13;97452.88;;;18.47;89.07
49194;BME280;35029;50.804;12.866;2023-07-13T02:50:39;97457.72;;;18.50;89.41
49194;BME280;35029;50.804;12.866;2023-07-13T02:53:04;97467.06;;;18.42;89.27
49194;BME280;35029;50.804;12.866;2023-07-13T02:55:30;97459.47;;;18.34;89.50
49194;BME280;35029;50.804;12.866;2023-07-13T02:57:56;97466.75;;;18.38;90.28
49194;BME280;35029;50.804;12.866;2023-07-13T03:00:23;97455.69;;;18.30;90.14
49194;BME280;35029;50.804;12.866;2023-07-13T03:02:48;97474.03;;;18.43;89.92
49194;BME280;35029;50.804;12.866;2023-07-13T03:05:15;97476.19;;;18.41;89.36
49194;BME280;35029;50.804;12.866;2023-07-13T03:07:42;97470.75;;;18.36;89.80
49194;BME280;35029;50.804;12.866;2023-07-13T03:10:09;97475.78;;;18.32;89.95
49194;BME280;35029;50.804;12.866;2023-07-13T03:12:42;97472.19;;;18.21;90.73
49194;BME280;35029;50.804;12.866;2023-07-13T03:15:16;97474.47;;;18.30;90.53
49194;BME280;35029;50.804;12.866;2023-07-13T03:17:43;97480.81;;;18.23;90.24
49194;BME280;35029;50.804;12.866;2023-07-13T03:20:09;97484.56;;;18.22;90.03
49194;BME280;35029;50.804;12.866;2023-07-13T03:22:35;97489.19;;;18.27;90.12
49194;BME280;35029;50.804;12.866;2023-07-13T03:25:01;97493.66;;;18.21;89.98
49194;BME280;35029;50.804;12.866;2023-07-13T03:27:27;97485.38;;;18.23;90.96
49194;BME280;35029;50.804;12.866;2023-07-13T03:29:53;97484.09;;;18.31;89.50
49194;BME280;35029;50.804;12.866;2023-07-13T03:32:19;97478.53;;;18.37;89.21
49194;BME280;35029;50.804;12.866;2023-07-13T03:34:45;97480.13;;;18.33;89.78
49194;BME280;35029;50.804;12.866;2023-07-13T03:37:11;97475.75;;;18.27;89.70
49194;BME280;35029;50.804;12.866;2023-07-13T03:39:38;97477.63;;;18.27;89.55
49194;BME280;35029;50.804;12.866;2023-07-13T03:42:05;97485.47;;;18.33;89.14
49194;BME280;35029;50.804;12.866;2023-07-13T03:44:32;97486.78;;;18.31;88.98
49194;BME280;35029;50.804;12.866;2023-07-13T03:46:57;97500.25;;;18.36;89.00
49194;BME280;35029;50.804;12.866;2023-07-13T03:49:23;97504.31;;;18.38;88.90
49194;BME280;35029;50.804;12.866;2023-07-13T03:51:49;97495.09;;;18.29;89.33
49194;BME280;35029;50.804;12.866;2023-07-13T03:54:14;97496.16;;;18.28;90.51
49194;BME280;35029;50.804;12.866;2023-07-13T03:56:40;97484.06;;;18.26;91.17
49194;BME280;35029;50.804;12.866;2023-07-13T03:59:07;97503.75;;;18.36;90.89
49194;BME280;35029;50.804;12.866;2023-07-13T04:01:33;97519.25;;;18.29;91.54
49194;BME280;35029;50.804;12.866;2023-07-13T04:03:58;97515.63;;;18.18;91.50
49194;BME280;35029;50.804;12.866;2023-07-13T04:06:28;97518.06;;;18.20;91.43
49194;BME280;35029;50.804;12.866;2023-07-13T04:08:57;97512.41;;;18.16;90.47
49194;BME280;35029;50.804;12.866;2023-07-13T04:11:26;97512.06;;;18.13;90.13
49194;BME280;35029;50.804;12.866;2023-07-13T04:13:51;97511.28;;;18.12;89.84
49194;BME280;35029;50.804;12.866;2023-07-13T04:16:18;97515.88;;;18.17;89.75
49194;BME280;35029;50.804;12.866;2023-07-13T04:18:46;97513.44;;;18.15;89.34
49194;BME280;35029;50.804;12.866;2023-07-13T04:21:13;97500.53;;;18.12;89.83
49194;BME280;35029;50.804;12.866;2023-07-13T04:23:39;97505.72;;;18.19;89.41
49194;BME280;35029;50.804;12.866;2023-07-13T04:26:05;97505.47;;;18.20;88.77
49194;BME280;35029;50.804;12.866;2023-07-13T04:28:31;97492.75;;;18.11;88.83
49194;BME280;35029;50.804;12.866;2023-07-13T04:30:57;97495.72;;;18.14;89.70
49194;BME280;35029;50.804;12.866;2023-07-13T04:33:22;97493.22;;;18.07;89.08
49194;BME280;35029;50.804;12.866;2023-07-13T04:35:50;97504.78;;;18.08;89.72
49194;BME280;35029;50.804;12.866;2023-07-13T04:38:23;97503.72;;;18.09;89.36
49194;BME280;35029;50.804;12.866;2023-07-13T04:40:49;97510.94;;;18.08;89.82
49194;BME280;35029;50.804;12.866;2023-07-13T04:43:15;97512.56;;;18.10;90.51
49194;BME280;35029;50.804;12.866;2023-07-13T04:45:41;97514.75;;;18.13;90.62
49194;BME280;35029;50.804;12.866;2023-07-13T04:48:06;97518.56;;;18.17;90.79
49194;BME280;35029;50.804;12.866;2023-07-13T04:50:32;97517.75;;;18.16;90.52
49194;BME280;35029;50.804;12.866;2023-07-13T04:52:57;97518.06;;;18.20;90.84
49194;BME280;35029;50.804;12.866;2023-07-13T04:55:24;97520.47;;;18.21;91.04
49194;BME280;35029;50.804;12.866;2023-07-13T04:57:50;97525.97;;;18.32;90.39
49194;BME280;35029;50.804;12.866;2023-07-13T05:00:16;97532.72;;;18.34;89.87
49194;BME280;35029;50.804;12.866;2023-07-13T05:02:44;97537.31;;;18.39;90.65
49194;BME280;35029;50.804;12.866;2023-07-13T05:05:11;97529.91;;;18.46;90.15
49194;BME280;35029;50.804;12.866;2023-07-13T05:07:36;97535.13;;;18.58;89.96
49194;BME280;35029;50.804;12.866;2023-07-13T05:10:03;97527.91;;;18.64;89.04
49194;BME280;35029;50.804;12.866;2023-07-13T05:12:30;97519.66;;;18.70;90.14
49194;BME280;35029;50.804;12.866;2023-07-13T05:14:57;97536.59;;;18.71;87.70
49194;BME280;35029;50.804;12.866;2023-07-13T05:17:22;97533.00;;;18.60;87.66
49194;BME280;35029;50.804;12.866;2023-07-13T05:19:48;97533.09;;;18.70;87.49
49194;BME280;35029;50.804;12.866;2023-07-13T05:22:14;97539.63;;;18.80;87.15
49194;BME280;35029;50.804;12.866;2023-07-13T05:24:40;97522.06;;;18.67;87.71
49194;BME280;35029;50.804;12.866;2023-07-13T05:27:06;97547.63;;;18.74;87.69
49194;BME280;35029;50.804;12.866;2023-07-13T05:29:31;97540.81;;;18.62;88.72
49194;BME280;35029;50.804;12.866;2023-07-13T05:31:57;97526.06;;;18.64;89.67
49194;BME280;35029;50.804;12.866;2023-07-13T05:34:23;97542.97;;;18.65;87.31
49194;BME280;35029;50.804;12.866;2023-07-13T05:36:49;97548.47;;;18.75;87.41
49194;BME280;35029;50.804;12.866;2023-07-13T05:39:15;97546.06;;;18.79;87.26
49194;BME280;35029;50.804;12.866;2023-07-13T05:41:42;97556.75;;;18.96;87.96
49194;BME280;35029;50.804;12.866;2023-07-13T05:44:08;97550.97;;;19.09;86.88
49194;BME280;35029;50.804;12.866;2023-07-13T05:46:34;97547.09;;;19.27;86.14
49194;BME280;35029;50.804;12.866;2023-07-13T05:49:03;97544.03;;;19.51;85.15
49194;BME280;35029;50.804;12.866;2023-07-13T05:51:34;97556.00;;;19.75;83.54
49194;BME280;35029;50.804;12.866;2023-07-13T05:53:59;97553.44;;;19.86;82.33
49194;BME280;35029;50.804;12.866;2023-07-13T05:56:25;97555.84;;;19.87;80.64
49194;BME280;35029;50.804;12.866;2023-07-13T05:58:52;97554.03;;;19.98;77.51
49194;BME280;35029;50.804;12.866;2023-07-13T06:01:17;97556.50;;;20.05;75.95
49194;BME280;35029;50.804;12.866;2023-07-13T06:03:46;97551.44;;;20.19;74.99
49194;BME280;35029;50.804;12.866;2023-07-13T06:06:12;97548.28;;;20.32;79.21
49194;BME280;35029;50.804;12.866;2023-07-13T06:08:39;97563.38;;;20.43;73.50
49194;BME280;35029;50.804;12.866;2023-07-13T06:11:27;97560.69;;;20.38;70.83
49194;BME280;35029;50.804;12.866;2023-07-13T06:13:53;97568.19;;;20.26;72.98
49194;BME280;35029;50.804;12.866;2023-07-13T06:16:19;97574.59;;;20.20;73.60
49194;BME280;35029;50.804;12.866;2023-07-13T06:18:45;97571.91;;;20.20;70.00
49194;BME280;35029;50.804;12.866;2023-07-13T06:21:13;97572.44;;;20.22;67.99
49194;BME280;35029;50.804;12.866;2023-07-13T06:23:39;97579.53;;;20.38;67.52
49194;BME280;35029;50.804;12.866;2023-07-13T06:26:06;97563.38;;;20.43;66.82
49194;BME280;35029;50.804;12.866;2023-07-13T06:28:32;97574.22;;;20.59;66.50
49194;BME280;35029;50.804;12.866;2023-07-13T06:30:59;97568.56;;;20.60;68.04
49194;BME280;35029;50.804;12.866;2023-07-13T06:33:25;97579.31;;;20.55;67.02
49194;BME280;35029;50.804;12.866;2023-07-13T06:35:51;97576.09;;;20.58;65.71
49194;BME280;35029;50.804;12.866;2023-07-13T06:38:17;97585.22;;;20.52;67.34
49194;BME280;35029;50.804;12.866;2023-07-13T06:40:42;97580.09;;;20.46;69.83
49194;BME280;35029;50.804;12.866;2023-07-13T06:43:08;97587.06;;;20.41;68.95
49194;BME280;35029;50.804;12.866;2023-07-13T06:45:42;97586.31;;;20.51;68.71
49194;BME280;35029;50.804;12.866;2023-07-13T06:48:08;97593.69;;;20.71;69.26
49194;BME280;35029;50.804;12.866;2023-07-13T06:50:34;97592.81;;;20.66;67.89
49194;BME280;35029;50.804;12.866;2023-07-13T06:53:00;97589.22;;;20.44;68.21
49194;BME280;35029;50.804;12.866;2023-07-13T06:55:25;97592.59;;;20.72;68.63
49194;BME280;35029;50.804;12.866;2023-07-13T06:57:51;97590.47;;;20.80;66.75
49194;BME280;35029;50.804;12.866;2023-07-13T07:00:17;97595.91;;;21.16;66.17
49194;BME280;35029;50.804;12.866;2023-07-13T07:02:44;97591.34;;;21.47;63.88
49194;BME280;35029;50.804;12.866;2023-07-13T07:05:09;97590.28;;;21.64;57.57
49194;BME280;35029;50.804;12.866;2023-07-13T07:07:35;97591.13;;;21.59;59.89
49194;BME280;35029;50.804;12.866;2023-07-13T07:10:01;97584.38;;;21.56;61.10
49194;BME280;35029;50.804;12.866;2023-07-13T07:12:28;97565.44;;;21.51;57.53
49194;BME280;35029;50.804;12.866;2023-07-13T07:14:54;97590.31;;;21.58;56.83
49194;BME280;35029;50.804;12.866;2023-07-13T07:17:20;97595.13;;;21.51;55.63
49194;BME280;35029;50.804;12.866;2023-07-13T07:19:45;97593.25;;;21.67;57.34
49194;BME280;35029;50.804;12.866;2023-07-13T07:22:11;97586.25;;;21.82;58.41
49194;BME280;35029;50.804;12.866;2023-07-13T07:24:37;97600.25;;;21.94;56.88
49194;BME280;35029;50.804;12.866;2023-07-13T07:27:02;97600.78;;;21.91;56.30
49194;BME280;35029;50.804;12.866;2023-07-13T07:29:28;97600.50;;;21.98;57.45
49194;BME280;35029;50.804;12.866;2023-07-13T07:31:54;97598.91;;;21.86;55.05
49194;BME280;35029;50.804;12.866;2023-07-13T07:34:19;97595.69;;;21.79;55.26
49194;BME280;35029;50.804;12.866;2023-07-13T07:36:45;97599.19;;;21.85;56.01
49194;BME280;35029;50.804;12.866;2023-07-13T07:39:11;97593.97;;;22.19;55.20
49194;BME280;35029;50.804;12.866;2023-07-13T07:41:37;97592.06;;;22.25;55.18
49194;BME280;35029;50.804;12.866;2023-07-13T07:44:03;97588.03;;;22.22;53.98
49194;BME280;35029;50.804;12.866;2023-07-13T07:46:29;97589.41;;;22.04;54.84
49194;BME280;35029;50.804;12.866;2023-07-13T07:48:55;97592.34;;;22.18;54.89
49194;BME280;35029;50.804;12.866;2023-07-13T07:51:21;97598.00;;;22.32;53.31
49194;BME280;35029;50.804;12.866;2023-07-13T07:53:47;97594.97;;;22.49;53.14
49194;BME280;35029;50.804;12.866;2023-07-13T07:56:13;97597.81;;;22.78;50.21
49194;BME280;35029;50.804;12.866;2023-07-13T07:58:38;97593.41;;;22.93;49.93
49194;BME280;35029;50.804;12.866;2023-07-13T08:01:05;97605.81;;;22.99;50.07
49194;BME280;35029;50.804;12.866;2023-07-13T08:03:31;97607.81;;;22.78;48.62
49194;BME280;35029;50.804;12.866;2023-07-13T08:06:05;97597.44;;;22.95;50.05
49194;BME280;35029;50.804;12.866;2023-07-13T08:08:32;97604.34;;;23.22;49.58
49194;BME280;35029;50.804;12.866;2023-07-13T08:10:57;97610.53;;;23.23;49.21
49194;BME280;35029;50.804;12.866;2023-07-13T08:13:33;97605.81;;;22.99;47.89
49194;BME280;35029;50.804;12.866;2023-07-13T08:16:00;97618.97;;;22.66;48.92
49194;BME280;35029;50.804;12.866;2023-07-13T08:18:26;97626.63;;;22.18;49.04
49194;BME280;35029;50.804;12.866;2023-07-13T08:20:54;97618.31;;;22.04;48.18
49194;BME280;35029;50.804;12.866;2023-07-13T08:23:25;97631.56;;;21.85;50.00
49194;BME280;35029;50.804;12.866;2023-07-13T08:25:54;97623.19;;;21.76;50.10
49194;BME280;35029;50.804;12.866;2023-07-13T08:28:24;97634.22;;;21.95;50.50
49194;BME280;35029;50.804;12.866;2023-07-13T08:30:50;97626.63;;;22.23;49.63
49194;BME280;35029;50.804;12.866;2023-07-13T08:33:21;97621.50;;;22.37;49.84
49194;BME280;35029;50.804;12.866;2023-07-13T08:35:48;97614.72;;;22.29;50.83
49194;BME280;35029;50.804;12.866;2023-07-13T08:38:15;97625.56;;;22.24;51.43
49194;BME280;35029;50.804;12.866;2023-07-13T08:40:42;97633.44;;;22.05;51.65
49194;BME280;35029;50.804;12.866;2023-07-13T08:43:16;97629.59;;;22.37;50.70
49194;BME280;35029;50.804;12.866;2023-07-13T08:53:49;97624.69;;;23.84;47.94
49194;BME280;35029;50.804;12.866;2023-07-13T08:56:21;97625.97;;;23.91;43.80
49194;BME280;35029;50.804;12.866;2023-07-13T08:59:00;97630.31;;;23.92;44.23
49194;BME280;35029;50.804;12.866;2023-07-13T09:04:21;97634.38;;;23.90;44.46
49194;BME280;35029;50.804;12.866;2023-07-13T09:10:21;97629.22;;;23.59;45.83
49194;BME280;35029;50.804;12.866;2023-07-13T09:15:43;97635.28;;;23.75;46.20
49194;BME280;35029;50.804;12.866;2023-07-13T09:23:15;97633.69;;;24.08;44.55
49194;BME280;35029;50.804;12.866;2023-07-13T09:25:45;97632.81;;;24.13;44.73
49194;BME280;35029;50.804;12.866;2023-07-13T09:28:20;97628.91;;;24.48;44.12
49194;BME280;35029;50.804;12.866;2023-07-13T09:31:17;97642.81;;;24.42;43.67
49194;BME280;35029;50.804;12.866;2023-07-13T09:33:44;97639.38;;;24.07;43.89
49194;BME280;35029;50.804;12.866;2023-07-13T09:36:23;97653.38;;;24.14;44.92
49194;BME280;35029;50.804;12.866;2023-07-13T09:39:10;97651.66;;;23.94;44.45
49194;BME280;35029;50.804;12.866;2023-07-13T09:42:00;97645.22;;;23.55;44.47
49194;BME280;35029;50.804;12.866;2023-07-13T09:44:28;97653.03;;;23.17;44.94
49194;BME280;35029;50.804;12.866;2023-07-13T09:46:56;97660.97;;;22.93;46.71
49194;BME280;35029;50.804;12.866;2023-07-13T09:49:33;97662.13;;;22.76;47.52
49194;BME280;35029;50.804;12.866;2023-07-13T09:52:10;97669.91;;;22.93;47.88
49194;BME280;35029;50.804;12.866;2023-07-13T09:54:36;97672.31;;;23.00;49.50
49194;BME280;35029;50.804;12.866;2023-07-13T09:57:08;97666.13;;;22.89;49.24
49194;BME280;35029;50.804;12.866;2023-07-13T09:59:43;97662.56;;;22.99;47.80
49194;BME280;35029;50.804;12.866;2023-07-13T10:05:16;97671.84;;;22.77;48.48
49194;BME280;35029;50.804;12.866;2023-07-13T10:07:50;97667.81;;;22.75;46.75
49194;BME280;35029;50.804;12.866;2023-07-13T10:10:19;97678.63;;;22.75;47.67
49194;BME280;35029;50.804;12.866;2023-07-13T10:12:47;97664.34;;;22.64;46.91
49194;BME280;35029;50.804;12.866;2023-07-13T10:15:16;97672.81;;;23.07;47.68
49194;BME280;35029;50.804;12.866;2023-07-13T10:17:43;97663.88;;;23.52;46.32
49194;BME280;35029;50.804;12.866;2023-07-13T10:20:09;97669.72;;;23.69;45.48
49194;BME280;35029;50.804;12.866;2023-07-13T10:22:59;97662.75;;;23.98;44.31
49194;BME280;35029;50.804;12.866;2023-07-13T10:25:31;97680.72;;;24.18;43.95
49194;BME280;35029;50.804;12.866;2023-07-13T10:30:53;97671.59;;;24.08;44.99
49194;BME280;35029;50.804;12.866;2023-07-13T10:33:20;97668.28;;;24.41;45.43
49194;BME280;35029;50.804;12.866;2023-07-13T10:35:47;97652.63;;;24.62;40.90
49194;BME280;35029;50.804;12.866;2023-07-13T10:38:19;97659.97;;;24.61;41.52
49194;BME280;35029;50.804;12.866;2023-07-13T10:41:01;97660.78;;;24.81;42.86
49194;BME280;35029;50.804;12.866;2023-07-13T10:43:34;97658.78;;;25.30;39.86
49194;BME280;35029;50.804;12.866;2023-07-13T10:46:06;97648.47;;;25.32;39.67
49194;BME280;35029;50.804;12.866;2023-07-13T10:48:34;97656.38;;;25.09;38.41
49194;BME280;35029;50.804;12.866;2023-07-13T10:51:03;97647.44;;;25.28;39.64
49194;BME280;35029;50.804;12.866;2023-07-13T10:53:33;97647.72;;;25.07;41.44
49194;BME280;35029;50.804;12.866;2023-07-13T10:56:02;97655.34;;;25.05;41.53
49194;BME280;35029;50.804;12.866;2023-07-13T10:58:41;97657.97;;;24.91;40.18
49194;BME280;35029;50.804;12.866;2023-07-13T11:01:17;97658.13;;;24.76;39.00
49194;BME280;35029;50.804;12.866;2023-07-13T11:06:17;97657.69;;;24.69;39.84
49194;BME280;35029;50.804;12.866;2023-07-13T11:09:08;97644.84;;;25.56;37.33
49194;BME280;35029;50.804;12.866;2023-07-13T11:11:43;97638.16;;;26.00;36.10
49194;BME280;35029;50.804;12.866;2023-07-13T11:14:31;97647.91;;;26.01;35.54
49194;BME280;35029;50.804;12.866;2023-07-13T11:20:22;97648.53;;;25.27;37.26
49194;BME280;35029;50.804;12.866;2023-07-13T11:25:33;97638.81;;;24.83;37.25
49194;BME280;35029;50.804;12.866;2023-07-13T11:30:47;97637.75;;;25.03;37.23
49194;BME280;35029;50.804;12.866;2023-07-13T11:33:19;97643.63;;;24.67;38.52
49194;BME280;35029;50.804;12.866;2023-07-13T11:36:04;97649.13;;;24.32;39.88
49194;BME280;35029;50.804;12.866;2023-07-13T11:38:39;97646.28;;;24.47;40.56
49194;BME280;35029;50.804;12.866;2023-07-13T11:41:17;97641.41;;;25.31;39.25
49194;BME280;35029;50.804;12.866;2023-07-13T11:43:45;97633.75;;;25.71;38.38
49194;BME280;35029;50.804;12.866;2023-07-13T11:46:14;97640.66;;;25.96;37.29
49194;BME280;35029;50.804;12.866;2023-07-13T11:48:41;97627.63;;;25.46;36.22
49194;BME280;35029;50.804;12.866;2023-07-13T11:53:49;97636.41;;;25.00;37.91
49194;BME280;35029;50.804;12.866;2023-07-13T11:56:15;97639.41;;;24.79;39.73
49194;BME280;35029;50.804;12.866;2023-07-13T11:58:41;97634.41;;;24.43;40.93
49194;BME280;35029;50.804;12.866;2023-07-13T12:01:17;97648.16;;;24.47;41.33
49194;BME280;35029;50.804;12.866;2023-07-13T12:03:45;97634.72;;;25.61;39.00
49194;BME280;35029;50.804;12.866;2023-07-13T12:06:27;97631.16;;;25.80;37.37
49194;BME280;35029;50.804;12.866;2023-07-13T12:09:09;97632.56;;;25.77;37.54
49194;BME280;35029;50.804;12.866;2023-07-13T12:11:43;97636.25;;;25.35;40.18
49194;BME280;35029;50.804;12.866;2023-07-13T12:14:16;97636.06;;;25.45;39.29
49194;BME280;35029;50.804;12.866;2023-07-13T12:16:43;97631.13;;;25.99;37.52
49194;BME280;35029;50.804;12.866;2023-07-13T12:19:25;97626.16;;;26.48;38.35
49194;BME280;35029;50.804;12.866;2023-07-13T12:21:53;97624.31;;;26.43;35.62
49194;BME280;35029;50.804;12.866;2023-07-13T12:24:21;97623.63;;;26.10;37.98
49194;BME280;35029;50.804;12.866;2023-07-13T12:26:59;97628.66;;;26.72;36.75
49194;BME280;35029;50.804;12.866;2023-07-13T12:29:26;97626.19;;;27.12;35.33
49194;BME280;35029;50.804;12.866;2023-07-13T12:31:52;97626.44;;;27.25;35.37
49194;BME280;35029;50.804;12.866;2023-07-13T12:34:20;97625.81;;;27.28;34.72
49194;BME280;35029;50.804;12.866;2023-07-13T12:36:59;97628.72;;;27.45;34.15
49194;BME280;35029;50.804;12.866;2023-07-13T12:39:46;97621.09;;;27.56;34.33
49194;BME280;35029;50.804;12.866;2023-07-13T12:47:49;97626.41;;;27.39;32.99
49194;BME280;35029;50.804;12.866;2023-07-13T12:50:19;97627.28;;;27.48;33.59
49194;BME280;35029;50.804;12.866;2023-07-13T12:52:51;97631.06;;;26.88;34.13
49194;BME280;35029;50.804;12.866;2023-07-13T12:55:19;97633.25;;;26.16;34.40
49194;BME280;35029;50.804;12.866;2023-07-13T12:57:52;97631.91;;;26.46;34.85
49194;BME280;35029;50.804;12.866;2023-07-13T13:00:27;97631.78;;;26.65;35.61
49194;BME280;35029;50.804;12.866;2023-07-13T13:02:55;97628.69;;;27.09;34.17
49194;BME280;35029;50.804;12.866;2023-07-13T13:05:21;97624.38;;;27.44;33.16
49194;BME280;35029;50.804;12.866;2023-07-13T13:07:51;97636.25;;;27.48;33.84
49194;BME280;35029;50.804;12.866;2023-07-13T13:10:17;97637.47;;;27.88;32.89
49194;BME280;35029;50.804;12.866;2023-07-13T13:12:43;97641.31;;;28.09;32.29
49194;BME280;35029;50.804;12.866;2023-07-13T13:15:10;97633.78;;;26.88;32.44
49194;BME280;35029;50.804;12.866;2023-07-13T13:17:40;97635.50;;;26.42;34.77
49194;BME280;35029;50.804;12.866;2023-07-13T13:20:16;97632.38;;;26.35;36.17
49194;BME280;35029;50.804;12.866;2023-07-13T13:22:42;97633.97;;;26.22;34.73
49194;BME280;35029;50.804;12.866;2023-07-13T13:25:12;97628.69;;;25.97;34.19
49194;BME280;35029;50.804;12.866;2023-07-13T13:27:43;97626.53;;;26.69;34.67
49194;BME280;35029;50.804;12.866;2023-07-13T13:30:13;97621.72;;;27.53;32.50
49194;BME280;35029;50.804;12.866;2023-07-13T13:32:40;97632.41;;;28.26;32.49
49194;BME280;35029;50.804;12.866;2023-07-13T13:35:13;97620.88;;;28.70;31.08
49194;BME280;35029;50.804;12.866;2023-07-13T13:37:39;97634.19;;;28.71;30.29
49194;BME280;35029;50.804;12.866;2023-07-13T13:40:17;97639.19;;;28.78;31.57
49194;BME280;35029;50.804;12.866;2023-07-13T13:42:43;97640.31;;;27.82;31.09
49194;BME280;35029;50.804;12.866;2023-07-13T13:45:10;97637.44;;;27.79;30.38
49194;BME280;35029;50.804;12.866;2023-07-13T13:47:38;97633.69;;;26.93;31.99